Time;durP1;ratioP1;P1;durP2;ratioP2;P2;SDS_P1;SDS_P2;PMS_P1;PMS_P2;Temp;Humidity;BMP_temperature;BMP_pressure;BME280_temperature;BME280_humidity;BME280_pressure;Samples;Min_cycle;Max_cycle;Signal;HPM_P1;HPM_P2
2023/05/08 00:01:24;;;;;;;10.85;9.75;;;;;;;11.49;49.19;99725.50;5024886;28;20038;-73
2023/05/08 00:03:53;;;;;;;8.85;8.02;;;;;;;10.63;49.29;99592.09;5025799;28;20381;-73
2023/05/08 00:06:20;;;;;;;9.55;8.65;;;;;;;11.76;49.35;99772.75;5025281;28;20245;-73
2023/05/08 00:08:47;;;;;;;9.55;8.63;;;;;;;11.47;49.34;99723.84;5025396;28;20100;-73
2023/05/08 00:11:13;;;;;;;9.18;8.38;;;;;;;11.74;49.32;99778.13;5025885;28;20057;-73
2023/05/08 00:13:42;;;;;;;10.27;9.25;;;;;;;11.74;49.00;99766.66;5025729;28;20050;-73
2023/05/08 00:16:10;;;;;;;8.98;8.07;;;;;;;11.70;49.40;99773.94;5025784;28;20046;-73
2023/05/08 00:18:37;;;;;;;10.18;8.25;;;;;;;11.69;49.34;99774.88;5024956;28;20052;-73
2023/05/08 00:21:04;;;;;;;10.80;8.88;;;;;;;11.69;49.29;99776.66;5025361;28;20125;-72
2023/05/08 00:23:31;;;;;;;8.95;8.05;;;;;;;11.66;49.15;99771.53;5025752;28;20298;-73
2023/05/08 00:25:58;;;;;;;8.88;8.02;;;;;;;11.26;49.13;99714.38;5024518;28;20049;-73
2023/05/08 00:28:25;;;;;;;9.65;8.65;;;;;;;11.54;49.25;99770.38;5024597;28;20052;-72
2023/05/08 00:30:53;;;;;;;8.02;7.13;;;;;;;11.28;49.50;99728.41;5024538;28;20121;-73
2023/05/08 00:33:20;;;;;;;9.07;8.18;;;;;;;11.37;49.40;99735.88;5025899;28;20052;-73
2023/05/08 00:35:47;;;;;;;8.43;7.63;;;;;;;11.54;49.55;99770.38;5025577;28;20062;-73
2023/05/08 00:38:13;;;;;;;9.10;7.63;;;;;;;11.49;49.34;99767.97;5025618;28;20042;-72
2023/05/08 00:40:41;;;;;;;8.50;7.18;;;;;;;11.46;49.34;99761.94;5025331;28;20353;-72
2023/05/08 00:43:08;;;;;;;11.52;7.88;;;;;;;11.20;49.22;99728.81;5025855;28;20046;-72
2023/05/08 00:45:37;;;;;;;8.35;7.47;;;;;;;10.99;49.43;99729.91;5025245;28;20253;-72
2023/05/08 00:48:06;;;;;;;9.15;8.27;;;;;;;11.15;49.41;99741.44;5024721;28;20331;-73
2023/05/08 00:50:33;;;;;;;8.77;7.88;;;;;;;11.26;49.66;99770.09;5024466;28;20042;-73
2023/05/08 00:53:02;;;;;;;8.82;7.93;;;;;;;11.25;49.69;99777.19;5025528;28;20042;-73
2023/05/08 00:55:30;;;;;;;8.70;7.80;;;;;;;11.26;49.52;99783.34;5025735;28;20045;-73
2023/05/08 00:57:57;;;;;;;8.75;7.85;;;;;;;11.27;49.38;99780.63;5028881;28;20096;-73
2023/05/08 01:00:24;;;;;;;7.82;7.03;;;;;;;11.31;49.36;99776.88;5029163;28;20045;-73
2023/05/08 01:02:51;;;;;;;8.27;7.50;;;;;;;11.31;49.28;99782.19;5027990;28;20065;-73
2023/05/08 01:05:20;;;;;;;7.72;6.93;;;;;;;11.05;49.14;99742.84;5029037;28;20053;-73
2023/05/08 01:07:46;;;;;;;8.77;7.88;;;;;;;11.31;49.24;99784.84;5029073;28;20091;-72
2023/05/08 01:10:13;;;;;;;8.10;7.30;;;;;;;11.32;49.24;99789.19;5029008;28;20037;-72
2023/05/08 01:12:54;;;;;;;9.00;8.10;;;;;;;11.30;49.55;99787.56;5027822;28;20054;-73
2023/05/08 01:15:27;;;;;;;8.55;7.68;;;;;;;11.33;49.32;99784.75;5029189;28;20038;-72
2023/05/08 01:18:04;;;;;;;10.32;7.18;;;;;;;11.12;49.42;99747.78;5027740;28;20120;-72
2023/05/08 01:20:40;;;;;;;8.82;7.93;;;;;;;10.89;49.22;99724.22;5028617;28;20369;-73
2023/05/08 01:23:35;;;;;;;8.82;8.00;;;;;;;11.31;49.63;99776.88;5027678;28;20046;-72
2023/05/08 01:26:33;;;;;;;8.45;7.57;;;;;;;11.31;49.93;99773.34;5021629;28;20054;-72
2023/05/08 01:29:29;;;;;;;7.53;6.82;;;;;;;11.30;49.77;99777.81;5028489;28;20128;-72
2023/05/08 01:32:19;;;;;;;9.18;7.75;;;;;;;10.48;49.96;99652.91;5028347;28;20122;-73
2023/05/08 01:34:56;;;;;;;9.68;7.40;;;;;;;11.28;49.66;99777.03;5020808;28;20073;-72
2023/05/08 01:37:30;;;;;;;8.40;7.60;;;;;;;11.30;49.66;99790.22;5028248;28;20042;-73
2023/05/08 01:40:04;;;;;;;8.13;7.32;;;;;;;11.29;49.53;99786.72;5028796;28;20050;-73
2023/05/08 01:42:42;;;;;;;8.82;7.93;;;;;;;11.28;49.67;99781.47;5027276;28;20076;-72
2023/05/08 01:45:15;;;;;;;10.18;9.18;;;;;;;11.25;49.76;99787.78;5028323;28;20041;-72
2023/05/08 01:47:47;;;;;;;9.18;8.27;;;;;;;10.03;49.68;99581.88;5027201;28;20038;-72
2023/05/08 01:50:18;;;;;;;9.50;7.88;;;;;;;11.28;49.66;99786.78;5027968;28;20064;-72
2023/05/08 01:52:49;;;;;;;9.25;8.27;;;;;;;11.27;49.57;99788.59;5028203;28;20037;-72
2023/05/08 01:55:24;;;;;;;8.77;7.88;;;;;;;9.00;49.43;99408.69;5027052;28;20042;-72
2023/05/08 01:57:54;;;;;;;9.60;8.05;;;;;;;11.28;49.59;99795.59;5027859;28;20037;-73
2023/05/08 02:00:22;;;;;;;9.52;8.50;;;;;;;11.26;49.47;99791.31;5028055;28;20053;-72
2023/05/08 02:02:52;;;;;;;14.32;11.70;;;;;;;11.24;49.43;99792.25;5027765;28;20294;-72
2023/05/08 02:05:21;;;;;;;11.82;10.30;;;;;;;11.23;49.59;99793.19;5026736;28;20056;-72
2023/05/08 02:07:49;;;;;;;10.77;9.52;;;;;;;11.24;49.56;99796.69;5027368;28;20076;-73
2023/05/08 02:10:18;;;;;;;10.07;9.07;;;;;;;11.22;49.79;99793.25;5028149;28;20088;-73
2023/05/08 02:12:47;;;;;;;9.95;8.93;;;;;;;11.23;49.53;99795.84;5026871;28;20042;-73
2023/05/08 02:15:16;;;;;;;9.90;8.13;;;;;;;10.44;49.56;99663.72;5028048;28;20290;-72
2023/05/08 02:17:46;;;;;;;9.88;8.68;;;;;;;10.90;49.76;99744.50;5027728;28;20096;-72
2023/05/08 02:20:16;;;;;;;11.27;8.23;;;;;;;11.20;50.02;99805.75;5027338;28;20050;-75
2023/05/08 02:22:44;;;;;;;9.00;8.10;;;;;;;11.24;49.50;99797.56;5027344;28;20088;-75
2023/05/08 02:25:13;;;;;;;9.40;7.82;;;;;;;11.24;49.68;99799.34;5027223;28;20084;-73
2023/05/08 02:27:42;;;;;;;9.45;8.32;;;;;;;11.18;49.58;99795.22;5026394;28;20084;-73
2023/05/08 02:30:12;;;;;;;8.82;7.57;;;;;;;11.16;49.72;99794.44;5027504;28;20052;-74
2023/05/08 02:32:41;;;;;;;8.85;7.95;;;;;;;11.14;49.73;99798.09;5027455;28;20052;-74
2023/05/08 02:35:10;;;;;;;8.85;7.80;;;;;;;11.08;49.61;99793.09;5026330;28;20038;-73
2023/05/08 02:37:39;;;;;;;8.88;7.88;;;;;;;10.89;49.83;99753.38;5027111;28;20165;-74
2023/05/08 02:40:09;;;;;;;8.20;7.40;;;;;;;11.12;49.68;99806.13;5026267;28;20249;-74
2023/05/08 02:42:35;;;;;;;8.50;7.65;;;;;;;11.12;49.82;99806.13;5027529;28;20052;-74
2023/05/08 02:45:03;;;;;;;8.98;8.07;;;;;;;11.12;49.79;99802.63;5027426;28;20060;-73
2023/05/08 02:47:39;;;;;;;9.45;8.45;;;;;;;11.12;49.75;99807.94;5026903;28;20038;-74
2023/05/08 02:50:13;;;;;;;9.20;8.35;;;;;;;11.07;49.83;99797.53;5026863;28;20042;-74
2023/05/08 02:52:47;;;;;;;10.05;9.05;;;;;;;11.07;49.92;99794.03;5027390;28;20042;-73
2023/05/08 02:55:24;;;;;;;8.93;8.02;;;;;;;11.06;49.72;99803.78;5027357;28;20193;-74
2023/05/08 02:58:02;;;;;;;8.45;7.43;;;;;;;11.06;49.72;99805.59;5025920;28;20291;-73
2023/05/08 03:00:35;;;;;;;8.27;7.47;;;;;;;11.04;49.72;99805.66;5026697;28;20046;-73
2023/05/08 03:03:09;;;;;;;7.38;6.57;;;;;;;10.82;50.01;99776.69;5026606;28;20329;-73
2023/05/08 03:05:38;;;;;;;8.52;7.63;;;;;;;10.99;49.82;99809.47;5025716;28;20046;-73
2023/05/08 03:08:13;;;;;;;7.75;7.03;;;;;;;10.80;49.82;99785.66;5025709;28;20045;-74
2023/05/08 03:10:43;;;;;;;8.20;7.38;;;;;;;10.93;49.80;99810.63;5025659;28;20045;-73
2023/05/08 03:13:12;;;;;;;7.90;6.78;;;;;;;10.91;50.00;99808.06;5026756;28;20057;-74
2023/05/08 03:15:44;;;;;;;9.73;8.43;;;;;;;10.88;50.11;99817.97;5026599;28;20034;-74
2023/05/08 03:18:16;;;;;;;8.63;7.72;;;;;;;10.86;50.03;99815.38;5026633;28;20050;-74
2023/05/08 03:20:46;;;;;;;8.18;7.32;;;;;;;10.83;50.29;99815.53;5025437;28;20050;-74
2023/05/08 03:23:17;;;;;;;9.23;7.82;;;;;;;10.84;50.20;99816.38;5025372;28;20293;-73
2023/05/08 03:25:44;;;;;;;7.75;6.90;;;;;;;10.62;50.00;99782.09;5025272;28;20044;-73
2023/05/08 03:28:13;;;;;;;7.60;6.90;;;;;;;10.85;49.85;99815.47;5026391;28;20042;-73
2023/05/08 03:30:41;;;;;;;7.68;6.93;;;;;;;10.85;49.79;99820.75;5026178;28;20046;-74
2023/05/08 03:33:11;;;;;;;8.38;6.70;;;;;;;10.82;49.74;99823.56;5026233;28;20286;-73
2023/05/08 03:35:39;;;;;;;9.00;7.55;;;;;;;10.80;49.81;99820.13;5026278;28;20193;-74
2023/05/08 03:38:07;;;;;;;8.27;7.10;;;;;;;10.82;49.89;99823.56;5026271;28;20063;-73
2023/05/08 03:40:37;;;;;;;7.03;6.32;;;;;;;10.79;50.06;99821.06;5025095;28;20056;-74
2023/05/08 03:43:06;;;;;;;8.98;6.25;;;;;;;10.67;49.98;99805.72;5026200;28;20163;-73
2023/05/08 03:45:36;;;;;;;7.85;7.03;;;;;;;10.76;50.01;99827.34;5026333;28;20049;-73
2023/05/08 03:48:04;;;;;;;6.80;5.95;;;;;;;10.77;49.74;99822.91;5025850;28;20088;-73
2023/05/08 03:50:31;;;;;;;7.63;6.57;;;;;;;10.04;49.89;99710.69;5026036;28;20286;-73
2023/05/08 03:52:59;;;;;;;7.68;6.85;;;;;;;10.48;49.96;99784.53;5025855;28;20230;-73
2023/05/08 03:55:26;;;;;;;7.68;6.88;;;;;;;10.71;49.96;99826.69;5025816;28;20365;-74
2023/05/08 03:57:59;;;;;;;8.40;7.50;;;;;;;10.68;49.93;99828.63;5026266;28;20286;-74
2023/05/08 04:00:37;;;;;;;8.18;7.28;;;;;;;10.44;49.71;99796.22;5024862;28;20041;-73
2023/05/08 04:03:15;;;;;;;10.82;6.68;;;;;;;10.67;50.10;99826.91;5026049;28;20088;-74
2023/05/08 04:05:50;;;;;;;7.45;6.43;;;;;;;10.43;50.13;99787.41;5025830;28;20213;-73
2023/05/08 04:08:22;;;;;;;10.73;7.35;;;;;;;10.66;49.94;99831.38;5025158;28;20250;-73
2023/05/08 04:10:55;;;;;;;9.38;6.75;;;;;;;10.69;49.83;99833.00;5024737;28;20341;-73
2023/05/08 04:13:28;;;;;;;9.82;6.85;;;;;;;10.43;50.20;99786.53;5025521;28;20034;-74
2023/05/08 04:16:05;;;;;;;9.50;6.55;;;;;;;10.68;50.08;99829.50;5025804;28;20053;-74
2023/05/08 04:18:36;;;;;;;7.90;7.00;;;;;;;10.68;50.11;99828.63;5025521;28;20048;-74
2023/05/08 04:21:08;;;;;;;8.23;7.43;;;;;;;10.69;50.18;99830.34;5025328;28;20062;-74
2023/05/08 04:23:36;;;;;;;8.18;7.35;;;;;;;10.71;49.96;99831.13;5025510;28;20046;-73
2023/05/08 04:26:03;;;;;;;8.10;7.30;;;;;;;10.68;50.04;99831.28;5024495;28;20095;-74
2023/05/08 04:28:32;;;;;;;7.88;7.07;;;;;;;10.69;50.16;99846.25;5025476;28;20301;-74
2023/05/08 04:30:58;;;;;;;8.63;6.90;;;;;;;10.70;50.16;99848.84;5026072;28;20038;-73
2023/05/08 04:33:25;;;;;;;8.45;7.15;;;;;;;10.09;50.03;99752.84;5029387;28;20048;-74
2023/05/08 04:35:52;;;;;;;9.18;7.38;;;;;;;10.74;50.15;99852.19;5029873;28;20042;-74
2023/05/08 04:38:19;;;;;;;8.73;7.35;;;;;;;10.75;50.15;99853.91;5029816;28;20042;-74
2023/05/08 04:40:45;;;;;;;7.88;7.07;;;;;;;10.77;49.89;99852.06;5029203;28;20359;-73
2023/05/08 04:43:12;;;;;;;10.63;7.40;;;;;;;10.79;50.13;99858.19;5028381;28;20238;-73
2023/05/08 04:45:40;;;;;;;7.72;6.88;;;;;;;10.78;49.95;99861.75;5029080;28;20294;-73
2023/05/08 04:48:07;;;;;;;7.38;6.68;;;;;;;10.77;49.99;99855.59;5028188;28;20060;-73
2023/05/08 04:50:33;;;;;;;7.43;6.63;;;;;;;10.80;50.18;99858.09;5028959;28;20114;-73
2023/05/08 04:53:00;;;;;;;7.55;6.35;;;;;;;10.82;50.13;99852.72;5029212;28;20109;-73
2023/05/08 04:55:27;;;;;;;8.05;6.90;;;;;;;10.79;50.02;99861.69;5029371;28;20058;-72
2023/05/08 04:57:53;;;;;;;7.97;6.75;;;;;;;10.78;50.06;99859.09;5029389;28;20085;-73
2023/05/08 05:00:20;;;;;;;7.75;6.55;;;;;;;10.77;49.88;99857.34;5029081;28;20052;-73
2023/05/08 05:02:48;;;;;;;8.52;7.65;;;;;;;10.74;49.83;99857.50;5029104;28;20305;-73
2023/05/08 05:05:15;;;;;;;9.27;6.78;;;;;;;10.71;49.81;99860.31;5028998;28;20285;-73
2023/05/08 05:07:42;;;;;;;7.50;6.68;;;;;;;8.48;49.80;99488.63;5028280;28;20030;-73
2023/05/08 05:10:10;;;;;;;7.68;6.88;;;;;;;10.67;49.92;99869.34;5028773;28;20092;-73
2023/05/08 05:12:37;;;;;;;8.70;6.78;;;;;;;10.44;50.16;99828.00;5028628;28;20106;-73
2023/05/08 05:15:05;;;;;;;6.60;5.90;;;;;;;10.44;50.20;99830.66;5028872;28;20096;-73
2023/05/08 05:17:32;;;;;;;6.80;6.07;;;;;;;10.72;50.28;99867.31;5027674;28;20045;-74
2023/05/08 05:20:00;;;;;;;7.40;6.70;;;;;;;10.73;49.92;99874.34;5028666;28;20187;-73
2023/05/08 05:22:27;;;;;;;7.38;6.40;;;;;;;10.69;50.07;99878.94;5027560;28;20117;-73
2023/05/08 05:24:54;;;;;;;8.75;6.68;;;;;;;10.71;50.10;99881.50;5028495;28;20053;-73
2023/05/08 05:27:21;;;;;;;7.20;6.50;;;;;;;10.58;50.00;99858.22;5027454;28;20030;-73
2023/05/08 05:29:47;;;;;;;7.60;6.80;;;;;;;9.95;50.22;99753.50;5027504;28;20187;-73
2023/05/08 05:32:14;;;;;;;7.05;6.25;;;;;;;10.06;50.00;99777.69;5028576;28;20053;-72
2023/05/08 05:34:41;;;;;;;7.60;6.30;;;;;;;10.67;50.05;99886.09;5028207;28;20042;-73
2023/05/08 05:37:09;;;;;;;8.23;6.80;;;;;;;10.69;50.07;99884.22;5028743;28;20068;-73
2023/05/08 05:39:36;;;;;;;7.53;6.13;;;;;;;10.68;49.95;99871.91;5028064;28;20100;-73
2023/05/08 05:42:03;;;;;;;7.22;6.05;;;;;;;10.49;50.07;99841.91;5028017;28;20305;-73
2023/05/08 05:44:30;;;;;;;7.93;6.45;;;;;;;10.75;49.97;99885.75;5027536;28;20121;-73
2023/05/08 05:46:56;;;;;;;6.60;5.90;;;;;;;10.76;49.99;99885.66;5028155;28;20053;-73
2023/05/08 05:49:23;;;;;;;7.30;6.25;;;;;;;10.61;49.93;99851.94;5028291;28;20042;-73
2023/05/08 05:51:50;;;;;;;5.88;5.28;;;;;;;10.57;50.07;99848.56;5028146;28;20045;-73
2023/05/08 05:54:18;;;;;;;8.02;6.53;;;;;;;10.78;50.02;99883.84;5028375;28;20049;-73
2023/05/08 05:56:45;;;;;;;5.63;5.03;;;;;;;10.82;50.01;99881.91;5028111;28;20038;-73
2023/05/08 05:59:11;;;;;;;6.78;5.28;;;;;;;10.84;49.74;99882.69;5027887;28;20060;-73
2023/05/08 06:01:38;;;;;;;6.55;5.68;;;;;;;10.85;49.59;99892.34;5026834;28;20049;-73
2023/05/08 06:04:05;;;;;;;7.95;6.30;;;;;;;10.79;49.74;99888.19;5027397;28;20052;-73
2023/05/08 06:06:32;;;;;;;7.20;6.03;;;;;;;10.78;49.78;99889.13;5027757;28;20065;-73
2023/05/08 06:08:58;;;;;;;6.07;5.47;;;;;;;10.83;49.85;99891.56;5027534;28;20068;-73
2023/05/08 06:11:27;;;;;;;7.63;5.30;;;;;;;10.87;49.81;99890.50;5027995;28;20045;-73
2023/05/08 06:13:53;;;;;;;6.20;5.60;;;;;;;10.92;49.64;99885.81;5027430;28;20053;-73
2023/05/08 06:16:21;;;;;;;6.43;5.38;;;;;;;10.10;49.65;99746.63;5027363;28;20213;-73
2023/05/08 06:18:48;;;;;;;7.65;5.45;;;;;;;10.77;49.67;99862.66;5026409;28;20320;-73
2023/05/08 06:21:15;;;;;;;7.60;5.55;;;;;;;8.94;49.73;99551.72;5027060;28;20062;-73
2023/05/08 06:23:42;;;;;;;6.32;5.50;;;;;;;10.10;49.48;99747.47;5027827;28;20352;-73
2023/05/08 06:26:09;;;;;;;6.95;6.25;;;;;;;11.01;49.71;99903.94;5027663;28;20113;-73
2023/05/08 06:28:37;;;;;;;9.90;6.18;;;;;;;11.06;49.76;99901.06;5027311;28;20096;-72
2023/05/08 06:31:04;;;;;;;6.78;5.60;;;;;;;10.99;49.76;99899.66;5027135;28;20045;-73
2023/05/08 06:33:31;;;;;;;5.88;5.00;;;;;;;11.22;49.51;99907.34;5026276;28;20201;-73
2023/05/08 06:35:57;;;;;;;5.60;4.57;;;;;;;11.27;49.65;99907.97;5027213;28;20041;-73
2023/05/08 06:38:24;;;;;;;10.63;6.03;;;;;;;11.31;49.30;99909.53;5027575;28;20114;-72
2023/05/08 06:40:51;;;;;;;8.30;6.00;;;;;;;10.99;49.21;99849.25;5026994;28;20328;-73
2023/05/08 06:43:18;;;;;;;7.05;6.00;;;;;;;11.32;49.10;99905.97;5026590;28;20069;-73
2023/05/08 06:45:46;;;;;;;6.53;5.22;;;;;;;11.36;49.33;99909.31;5026991;28;20046;-73
2023/05/08 06:48:12;;;;;;;6.97;5.13;;;;;;;11.40;49.40;99911.75;5026388;28;20038;-73
2023/05/08 06:50:39;;;;;;;7.05;5.93;;;;;;;10.93;49.55;99831.84;5026736;28;20167;-73
2023/05/08 06:53:06;;;;;;;8.10;7.22;;;;;;;11.42;49.10;99915.19;5026791;28;20046;-73
2023/05/08 06:55:33;;;;;;;7.20;6.50;;;;;;;11.21;49.30;99876.44;5026300;28;20049;-73
2023/05/08 06:58:00;;;;;;;7.97;6.07;;;;;;;11.48;49.29;99916.66;5025803;28;20045;-73
2023/05/08 07:00:27;;;;;;;6.53;5.78;;;;;;;11.19;49.09;99847.34;5025617;28;20037;-73
2023/05/08 07:02:55;;;;;;;7.57;5.60;;;;;;;11.64;48.84;99908.78;5026620;28;20345;-73
2023/05/08 07:05:22;;;;;;;7.45;5.22;;;;;;;11.38;48.83;99867.66;5026734;28;20294;-73
2023/05/08 07:07:49;;;;;;;6.38;5.40;;;;;;;11.63;48.86;99907.06;5026236;28;20096;-73
2023/05/08 07:10:18;;;;;;;6.18;5.35;;;;;;;11.31;48.97;99859.13;5009390;28;20092;-73
2023/05/08 07:12:45;;;;;;;9.35;5.05;;;;;;;11.66;48.93;99905.13;5026277;28;20046;-73
2023/05/08 07:15:12;;;;;;;5.82;5.22;;;;;;;11.70;49.10;99911.13;5026295;28;20103;-73
2023/05/08 07:17:40;;;;;;;7.90;5.47;;;;;;;11.73;48.85;99903.88;5026300;28;20038;-73
2023/05/08 07:20:10;;;;;;;6.38;5.25;;;;;;;11.75;48.93;99906.44;5026372;28;20268;-73
2023/05/08 07:22:37;;;;;;;5.88;5.25;;;;;;;11.77;48.96;99910.75;5026486;28;20201;-73
2023/05/08 07:25:04;;;;;;;6.25;5.28;;;;;;;11.80;48.91;99909.72;5026605;28;20050;-73
2023/05/08 07:27:30;;;;;;;8.38;6.70;;;;;;;11.84;49.00;99916.59;5026432;28;20037;-73
2023/05/08 07:30:02;;;;;;;6.38;5.38;;;;;;;11.72;48.85;99888.88;5025916;28;20042;-74
2023/05/08 07:32:29;;;;;;;6.45;5.65;;;;;;;11.92;48.78;99922.38;5026011;28;20101;-73
2023/05/08 07:34:56;;;;;;;6.20;5.60;;;;;;;11.93;48.74;99921.44;5026016;28;20105;-73
2023/05/08 07:37:24;;;;;;;4.97;4.47;;;;;;;9.30;48.44;99476.91;5025095;28;20042;-73
2023/05/08 07:39:51;;;;;;;5.97;5.38;;;;;;;11.81;48.64;99904.34;5025078;28;20034;-74
2023/05/08 07:42:18;;;;;;;6.85;5.63;;;;;;;11.98;48.65;99931.81;5026136;28;20189;-73
2023/05/08 07:44:44;;;;;;;6.03;4.80;;;;;;;11.98;48.79;99923.84;5025743;28;20220;-73
2023/05/08 07:47:11;;;;;;;5.85;4.82;;;;;;;12.02;48.63;99926.31;5025633;28;20104;-73
2023/05/08 07:49:38;;;;;;;5.95;5.35;;;;;;;12.03;48.56;99920.06;5024890;28;20079;-73
2023/05/08 07:52:05;;;;;;;7.00;5.40;;;;;;;12.09;48.37;99924.19;5025991;28;20049;-73
2023/05/08 07:54:33;;;;;;;7.32;5.20;;;;;;;11.89;48.39;99894.19;5025700;28;20038;-74
2023/05/08 07:57:00;;;;;;;7.20;5.47;;;;;;;12.16;48.45;99929.13;5025634;28;20046;-73
2023/05/08 07:59:26;;;;;;;7.07;5.78;;;;;;;12.18;48.26;99921.94;5026111;28;20057;-73
2023/05/08 08:01:53;;;;;;;7.40;5.07;;;;;;;11.06;48.45;99736.63;5026025;28;20046;-73
2023/05/08 08:04:20;;;;;;;6.10;5.00;;;;;;;12.24;48.52;99923.41;5025708;28;20073;-73
2023/05/08 08:06:46;;;;;;;5.97;4.85;;;;;;;12.28;48.38;99924.97;5025088;28;20051;-74
2023/05/08 08:09:13;;;;;;;5.55;4.63;;;;;;;12.39;48.45;99924.41;5025880;28;20052;-74
2023/05/08 08:11:41;;;;;;;6.38;5.07;;;;;;;12.47;48.06;99924.84;5025764;28;20046;-73
2023/05/08 08:14:08;;;;;;;5.45;4.85;;;;;;;12.52;48.15;99921.00;5025789;28;20065;-73
2023/05/08 08:16:35;;;;;;;7.53;5.40;;;;;;;12.59;47.88;99923.31;5025473;28;20064;-74
2023/05/08 08:19:01;;;;;;;6.70;5.05;;;;;;;12.66;47.78;99908.75;5025374;28;20034;-73
2023/05/08 08:21:28;;;;;;;5.15;4.63;;;;;;;11.47;47.52;99708.78;5024461;28;20041;-73
2023/05/08 08:23:55;;;;;;;5.60;4.88;;;;;;;12.73;48.00;99908.31;5025916;28;20064;-74
2023/05/08 08:26:22;;;;;;;5.10;4.43;;;;;;;12.62;47.78;99880.63;5024712;28;20332;-73
2023/05/08 08:28:50;;;;;;;5.80;4.88;;;;;;;12.84;47.84;99910.41;5025771;28;20057;-73
2023/05/08 08:31:18;;;;;;;6.38;5.57;;;;;;;12.88;47.48;99913.75;5025682;28;20308;-73
2023/05/08 08:33:45;;;;;;;5.63;5.03;;;;;;;13.00;47.33;99910.41;5025513;28;20069;-73
2023/05/08 08:36:16;;;;;;;5.25;4.25;;;;;;;12.74;46.83;99864.84;5025433;28;20317;-73
2023/05/08 08:38:42;;;;;;;5.40;4.78;;;;;;;13.16;46.89;99905.91;5025190;28;20071;-73
2023/05/08 08:41:09;;;;;;;7.97;5.13;;;;;;;13.01;46.97;99873.06;5025720;28;20042;-73
2023/05/08 08:43:38;;;;;;;10.13;4.68;;;;;;;13.37;46.66;99914.47;5025415;28;20256;-74
2023/05/08 08:46:11;;;;;;;4.72;4.13;;;;;;;13.49;46.30;99911.13;5025303;28;20042;-73
2023/05/08 08:48:44;;;;;;;5.82;4.72;;;;;;;13.10;45.86;99843.25;5024367;28;20054;-73
2023/05/08 08:51:18;;;;;;;6.00;5.40;;;;;;;13.71;46.43;99908.06;5025164;28;20038;-74
2023/05/08 08:53:50;;;;;;;7.72;5.63;;;;;;;13.83;46.20;99879.84;5025080;28;20054;-73
2023/05/08 08:56:17;;;;;;;7.00;5.75;;;;;;;14.22;45.92;99904.06;5025521;28;20049;-74
2023/05/08 08:58:50;;;;;;;7.85;7.05;;;;;;;14.30;45.55;99866.25;5025084;28;20064;-73
2023/05/08 09:01:20;;;;;;;8.35;6.63;;;;;;;14.73;44.85;99904.50;5025081;28;20096;-73
2023/05/08 09:03:47;;;;;;;8.15;7.35;;;;;;;14.84;45.02;99895.81;5025065;28;20037;-73
2023/05/08 09:06:14;;;;;;;10.75;7.20;;;;;;;14.53;44.81;99833.66;5024956;28;20046;-74
2023/05/08 09:08:41;;;;;;;5.88;5.00;;;;;;;14.77;44.51;99835.78;5024984;28;20057;-74
2023/05/08 09:11:08;;;;;;;5.30;4.70;;;;;;;15.06;43.93;99893.47;5025509;28;20104;-73
2023/05/08 09:13:35;;;;;;;6.85;5.72;;;;;;;15.04;44.66;99903.38;5024879;28;20041;-74
2023/05/08 09:16:02;;;;;;;8.10;6.80;;;;;;;14.99;44.28;99882.31;5025040;28;20309;-74
2023/05/08 09:18:30;;;;;;;7.70;6.03;;;;;;;15.09;44.46;99866.56;5027835;28;20030;-73
2023/05/08 09:20:57;;;;;;;5.85;5.05;;;;;;;15.43;43.95;99897.22;5027452;28;20067;-74
2023/05/08 09:23:24;;;;;;;6.28;5.30;;;;;;;15.59;43.79;99889.91;5028796;28;20250;-74
2023/05/08 09:25:51;;;;;;;7.75;6.03;;;;;;;15.54;43.31;99862.66;5027530;28;20048;-74
2023/05/08 09:28:18;;;;;;;7.30;5.28;;;;;;;15.88;42.99;99905.81;5028348;28;20237;-74
2023/05/08 09:30:50;;;;;;;7.15;6.22;;;;;;;16.01;42.45;99893.31;5027445;28;20045;-74
2023/05/08 09:33:17;;;;;;;6.38;5.07;;;;;;;16.14;42.50;99887.97;5028813;28;20087;-74
2023/05/08 09:35:47;;;;;;;6.15;5.40;;;;;;;16.05;42.25;99860.06;5027271;28;20080;-74
2023/05/08 09:38:35;;;;;;;7.88;6.30;;;;;;;16.44;41.52;99890.31;5028074;28;20050;-73
2023/05/08 09:41:07;;;;;;;7.63;6.45;;;;;;;16.53;41.93;99876.28;5028519;28;20057;-73
2023/05/08 09:43:34;;;;;;;6.45;5.38;;;;;;;16.65;42.13;99880.75;5026890;28;20092;-73
2023/05/08 09:46:20;;;;;;;6.63;5.07;;;;;;;16.75;40.63;99876.47;5028206;28;20200;-73
2023/05/08 09:48:47;;;;;;;5.82;5.03;;;;;;;16.72;41.38;99875.84;5028046;28;20316;-74
2023/05/08 09:51:15;;;;;;;5.82;4.43;;;;;;;16.67;41.93;99874.34;5028111;28;20113;-73
2023/05/08 09:53:42;;;;;;;7.38;5.43;;;;;;;16.76;42.05;99875.50;5028062;28;20037;-73
2023/05/08 09:56:09;;;;;;;5.57;5.00;;;;;;;16.82;41.35;99864.38;5027637;28;20048;-74
2023/05/08 09:58:39;;;;;;;6.57;4.95;;;;;;;16.95;41.21;99865.19;5026869;28;20062;-74
2023/05/08 10:01:06;;;;;;;7.47;5.45;;;;;;;17.08;41.13;99862.44;5027583;28;20084;-73
2023/05/08 10:03:49;;;;;;;6.25;4.28;;;;;;;16.87;39.63;99814.00;5027922;28;20061;-74
2023/05/08 10:06:17;;;;;;;5.15;4.65;;;;;;;17.32;41.21;99857.13;5027842;28;20041;-73
2023/05/08 10:08:45;;;;;;;6.03;5.28;;;;;;;17.19;40.90;99819.66;5027222;28;20045;-74
2023/05/08 10:11:16;;;;;;;6.35;5.45;;;;;;;17.51;40.37;99854.75;5026425;28;20046;-74
2023/05/08 10:13:43;;;;;;;5.15;4.35;;;;;;;17.52;40.22;99850.25;5027940;28;20046;-74
2023/05/08 10:16:14;;;;;;;6.43;5.00;;;;;;;17.23;39.89;99815.81;5026450;28;20052;-74
2023/05/08 10:18:46;;;;;;;7.55;5.53;;;;;;;17.27;40.05;99814.59;5027461;28;20104;-73
2023/05/08 10:21:14;;;;;;;5.72;4.97;;;;;;;17.53;40.44;99846.59;5027275;28;20050;-73
2023/05/08 10:23:43;;;;;;;5.30;4.40;;;;;;;17.63;39.92;99855.69;5026951;28;20038;-72
2023/05/08 10:26:12;;;;;;;6.82;5.97;;;;;;;17.72;40.10;99848.75;5026968;28;20105;-74
2023/05/08 10:28:43;;;;;;;6.00;5.35;;;;;;;17.80;39.91;99835.63;5026365;28;20108;-74
2023/05/08 10:31:12;;;;;;;5.85;4.80;;;;;;;17.87;39.91;99837.72;5027032;28;20056;-73
2023/05/08 10:33:41;;;;;;;10.82;9.65;;;;;;;17.35;39.59;99746.19;5026285;28;20049;-73
2023/05/08 10:36:09;;;;;;;6.63;5.60;;;;;;;17.79;39.62;99828.56;5026994;28;20037;-73
2023/05/08 10:38:37;;;;;;;10.07;8.80;;;;;;;17.80;39.83;99830.25;5026755;28;20066;-74
2023/05/08 10:41:06;;;;;;;6.60;5.50;;;;;;;17.82;39.99;99828.31;5026254;28;20048;-74
2023/05/08 10:43:34;;;;;;;5.97;5.18;;;;;;;17.44;39.75;99765.09;5026714;28;20169;-73
2023/05/08 10:46:09;;;;;;;5.78;4.53;;;;;;;17.58;38.89;99789.00;5026796;28;20038;-74
2023/05/08 10:48:43;;;;;;;6.88;4.85;;;;;;;17.82;39.23;99833.69;5025888;28;20213;-73
2023/05/08 10:51:17;;;;;;;7.18;4.60;;;;;;;17.53;38.25;99777.78;5025877;28;20080;-74
2023/05/08 10:53:50;;;;;;;5.40;4.65;;;;;;;17.63;39.87;99810.13;5026594;28;20277;-74
2023/05/08 10:56:25;;;;;;;6.35;5.03;;;;;;;17.69;39.87;99817.69;5027279;28;20049;-74
2023/05/08 10:58:56;;;;;;;4.88;4.10;;;;;;;17.81;39.34;99807.84;5026776;28;20077;-74
2023/05/08 11:01:23;;;;;;;6.13;4.63;;;;;;;17.92;39.71;99791.75;5026703;28;20286;-74
2023/05/08 11:03:50;;;;;;;5.85;4.95;;;;;;;17.73;39.53;99753.97;5027140;28;20201;-75
2023/05/08 11:06:17;;;;;;;6.28;4.18;;;;;;;17.71;39.46;99754.09;5026345;28;20057;-74
2023/05/08 11:08:47;;;;;;;6.75;4.28;;;;;;;17.97;39.33;99794.94;5025590;28;20040;-74
2023/05/08 11:11:32;;;;;;;5.55;4.90;;;;;;;18.00;39.25;99794.69;5025362;28;20050;-74
2023/05/08 11:14:00;;;;;;;;;;;;;;;18.00;37.49;99788.47;5025782;28;20042;-74
2023/05/08 11:17:04;;;;;;;4.78;3.80;;;;;;;17.99;37.49;99784.09;5025911;28;19924;-74
2023/05/08 11:19:32;;;;;;;5.15;4.10;;;;;;;17.95;39.20;99780.81;5025892;28;20153;-75
2023/05/08 11:22:23;;;;;;;5.97;4.13;;;;;;;18.03;38.72;99788.25;5025188;28;20046;-74
2023/05/08 11:24:54;;;;;;;6.47;5.13;;;;;;;18.14;39.45;99781.03;5026035;28;20080;-75
2023/05/08 11:28:03;;;;;;;6.47;3.67;;;;;;;17.86;37.70;99722.53;5026501;28;20049;-75
2023/05/08 11:30:40;;;;;;;6.00;4.32;;;;;;;16.24;37.91;99483.41;5026226;28;20045;-75
2023/05/08 11:33:30;;;;;;;5.57;3.85;;;;;;;18.00;37.91;99730.34;5022451;28;20045;-75
2023/05/08 11:35:57;;;;;;;4.50;3.80;;;;;;;18.35;38.88;99778.47;5025878;28;20046;-75
2023/05/08 11:38:27;;;;;;;6.57;4.30;;;;;;;18.46;38.90;99772.25;5025320;28;20116;-74
2023/05/08 11:40:59;;;;;;;4.28;3.72;;;;;;;18.48;38.31;99765.75;5025326;28;20105;-75
2023/05/08 11:43:51;;;;;;;4.95;4.00;;;;;;;18.33;37.92;99736.63;5025791;28;20323;-74
2023/05/08 11:46:21;;;;;;;6.93;3.92;;;;;;;18.09;38.24;99691.19;5025774;28;20042;-74